sensor_id;sensor_type;location;lat;lon;timestamp;temperature;humidity
37310;DHT22;23195;47.744;7.358;2024-02-16T00:00:28;11.80;99.90
37310;DHT22;23195;47.744;7.358;2024-02-16T00:03:14;11.80;99.90
37310;DHT22;23195;47.744;7.358;2024-02-16T00:05:42;11.80;99.90
37310;DHT22;23195;47.744;7.358;2024-02-16T00:08:20;11.70;99.90
37310;DHT22;23195;47.744;7.358;2024-02-16T00:10:55;11.90;99.90
37310;DHT22;23195;47.744;7.358;2024-02-16T00:13:27;11.80;99.90
37310;DHT22;23195;47.744;7.358;2024-02-16T00:16:13;11.90;99.90
37310;DHT22;23195;47.744;7.358;2024-02-16T00:18:41;12.00;99.90
37310;DHT22;23195;47.744;7.358;2024-02-16T00:21:19;11.90;99.90
37310;DHT22;23195;47.744;7.358;2024-02-16T00:24:03;12.00;99.90
37310;DHT22;23195;47.744;7.358;2024-02-16T00:26:39;12.00;99.90
37310;DHT22;23195;47.744;7.358;2024-02-16T00:29:15;11.90;99.90
37310;DHT22;23195;47.744;7.358;2024-02-16T00:31:51;11.90;99.90
37310;DHT22;23195;47.744;7.358;2024-02-16T00:34:30;12.00;99.90
37310;DHT22;23195;47.744;7.358;2024-02-16T00:36:58;12.00;99.90
37310;DHT22;23195;47.744;7.358;2024-02-16T00:39:30;11.50;99.90
37310;DHT22;23195;47.744;7.358;2024-02-16T00:42:07;11.90;99.90
37310;DHT22;23195;47.744;7.358;2024-02-16T00:44:58;11.90;99.90
37310;DHT22;23195;47.744;7.358;2024-02-16T00:47:32;12.00;99.90
37310;DHT22;23195;47.744;7.358;2024-02-16T00:50:21;12.00;99.90
37310;DHT22;23195;47.744;7.358;2024-02-16T00:52:56;11.90;99.90
37310;DHT22;23195;47.744;7.358;2024-02-16T00:55:28;11.90;99.90
37310;DHT22;23195;47.744;7.358;2024-02-16T00:57:54;11.70;99.90
37310;DHT22;23195;47.744;7.358;2024-02-16T01:00:24;12.00;99.90
37310;DHT22;23195;47.744;7.358;2024-02-16T01:03:12;12.00;99.90
37310;DHT22;23195;47.744;7.358;2024-02-16T01:05:48;12.00;99.90
37310;DHT22;23195;47.744;7.358;2024-02-16T01:08:17;11.90;99.90
37310;DHT22;23195;47.744;7.358;2024-02-16T01:10:55;11.90;99.90
37310;DHT22;23195;47.744;7.358;2024-02-16T01:13:31;11.70;99.90
37310;DHT22;23195;47.744;7.358;2024-02-16T01:16:03;11.90;99.90
37310;DHT22;23195;47.744;7.358;2024-02-16T01:18:29;11.90;99.90
37310;DHT22;23195;47.744;7.358;2024-02-16T01:21:11;11.90;99.90
37310;DHT22;23195;47.744;7.358;2024-02-16T01:24:07;11.90;99.90
37310;DHT22;23195;47.744;7.358;2024-02-16T01:26:49;11.80;99.90
37310;DHT22;23195;47.744;7.358;2024-02-16T01:29:25;11.70;99.90
37310;DHT22;23195;47.744;7.358;2024-02-16T01:31:53;11.70;99.90
37310;DHT22;23195;47.744;7.358;2024-02-16T01:34:23;11.80;99.90
37310;DHT22;23195;47.744;7.358;2024-02-16T01:37:26;11.80;99.90
37310;DHT22;23195;47.744;7.358;2024-02-16T01:43:11;11.80;99.90
37310;DHT22;23195;47.744;7.358;2024-02-16T01:45:39;11.80;99.90
37310;DHT22;23195;47.744;7.358;2024-02-16T01:48:17;11.80;99.90
37310;DHT22;23195;47.744;7.358;2024-02-16T01:50:54;12.20;99.90
37310;DHT22;23195;47.744;7.358;2024-02-16T01:53:23;11.70;99.90
37310;DHT22;23195;47.744;7.358;2024-02-16T01:56:02;11.80;99.90
37310;DHT22;23195;47.744;7.358;2024-02-16T01:58:33;11.70;99.90
37310;DHT22;23195;47.744;7.358;2024-02-16T02:01:09;11.70;99.90
37310;DHT22;23195;47.744;7.358;2024-02-16T02:06:46;11.50;99.90
37310;DHT22;23195;47.744;7.358;2024-02-16T02:09:19;11.70;99.90
37310;DHT22;23195;47.744;7.358;2024-02-16T02:14:47;11.70;99.90
37310;DHT22;23195;47.744;7.358;2024-02-16T02:17:30;11.70;99.90
37310;DHT22;23195;47.744;7.358;2024-02-16T02:20:03;11.60;99.90
37310;DHT22;23195;47.744;7.358;2024-02-16T02:22:51;11.60;99.90
37310;DHT22;23195;47.744;7.358;2024-02-16T02:25:23;11.70;99.90
37310;DHT22;23195;47.744;7.358;2024-02-16T02:27:56;11.60;99.90
37310;DHT22;23195;47.744;7.358;2024-02-16T02:30:34;11.60;99.90
37310;DHT22;23195;47.744;7.358;2024-02-16T02:33:02;11.60;99.90
37310;DHT22;23195;47.744;7.358;2024-02-16T02:35:41;11.60;99.90
37310;DHT22;23195;47.744;7.358;2024-02-16T02:38:20;11.50;99.90
37310;DHT22;23195;47.744;7.358;2024-02-16T02:43:52;11.60;99.90
37310;DHT22;23195;47.744;7.358;2024-02-16T02:46:31;11.60;99.90
37310;DHT22;23195;47.744;7.358;2024-02-16T02:49:24;11.60;99.90
37310;DHT22;23195;47.744;7.358;2024-02-16T02:52:03;12.20;99.90
37310;DHT22;23195;47.744;7.358;2024-02-16T02:54:29;11.60;99.90
37310;DHT22;23195;47.744;7.358;2024-02-16T02:57:33;11.60;99.90
37310;DHT22;23195;47.744;7.358;2024-02-16T03:00:09;11.60;99.90
37310;DHT22;23195;47.744;7.358;2024-02-16T03:02:41;11.50;99.90
37310;DHT22;23195;47.744;7.358;2024-02-16T03:05:16;11.50;99.90
37310;DHT22;23195;47.744;7.358;2024-02-16T03:07:48;11.50;99.90
37310;DHT22;23195;47.744;7.358;2024-02-16T03:10:14;11.40;99.90
37310;DHT22;23195;47.744;7.358;2024-02-16T03:12:56;11.50;99.90
37310;DHT22;23195;47.744;7.358;2024-02-16T03:15:37;11.40;99.90
37310;DHT22;23195;47.744;7.358;2024-02-16T03:18:03;11.40;99.90
37310;DHT22;23195;47.744;7.358;2024-02-16T03:20:39;11.40;99.90
37310;DHT22;23195;47.744;7.358;2024-02-16T03:23:17;11.50;99.90
37310;DHT22;23195;47.744;7.358;2024-02-16T03:25:56;11.50;99.90
37310;DHT22;23195;47.744;7.358;2024-02-16T03:28:38;11.50;99.90
37310;DHT22;23195;47.744;7.358;2024-02-16T03:31:23;11.50;99.90
37310;DHT22;23195;47.744;7.358;2024-02-16T03:33:59;11.40;99.90
37310;DHT22;23195;47.744;7.358;2024-02-16T03:36:31;9.80;99.90
37310;DHT22;23195;47.744;7.358;2024-02-16T03:39:02;11.40;99.90
37310;DHT22;23195;47.744;7.358;2024-02-16T03:41:41;11.30;99.90
37310;DHT22;23195;47.744;7.358;2024-02-16T03:44:20;11.30;99.90
37310;DHT22;23195;47.744;7.358;2024-02-16T03:49:47;11.10;99.90
37310;DHT22;23195;47.744;7.358;2024-02-16T03:52:13;11.20;99.90
37310;DHT22;23195;47.744;7.358;2024-02-16T03:54:58;11.20;99.90
37310;DHT22;23195;47.744;7.358;2024-02-16T03:57:41;11.10;99.90
37310;DHT22;23195;47.744;7.358;2024-02-16T04:00:27;11.00;99.90
37310;DHT22;23195;47.744;7.358;2024-02-16T04:03:13;11.00;99.90
37310;DHT22;23195;47.744;7.358;2024-02-16T04:05:49;11.00;99.90
37310;DHT22;23195;47.744;7.358;2024-02-16T04:08:34;10.90;99.90
37310;DHT22;23195;47.744;7.358;2024-02-16T04:11:00;11.00;99.90
37310;DHT22;23195;47.744;7.358;2024-02-16T04:13:29;11.00;99.90
37310;DHT22;23195;47.744;7.358;2024-02-16T04:16:14;10.90;99.90
37310;DHT22;23195;47.744;7.358;2024-02-16T04:18:53;10.80;99.90
37310;DHT22;23195;47.744;7.358;2024-02-16T04:21:30;10.90;99.90
37310;DHT22;23195;47.744;7.358;2024-02-16T04:24:01;11.00;99.90
37310;DHT22;23195;47.744;7.358;2024-02-16T04:26:40;10.90;99.90
37310;DHT22;23195;47.744;7.358;2024-02-16T04:29:10;11.00;99.90
37310;DHT22;23195;47.744;7.358;2024-02-16T04:31:47;9.60;99.90
37310;DHT22;23195;47.744;7.358;2024-02-16T04:34:16;11.00;99.90
37310;DHT22;23195;47.744;7.358;2024-02-16T04:36:47;11.00;99.90
37310;DHT22;23195;47.744;7.358;2024-02-16T04:39:21;10.90;99.90
37310;DHT22;23195;47.744;7.358;2024-02-16T04:41:56;10.90;99.90
37310;DHT22;23195;47.744;7.358;2024-02-16T04:47:26;10.90;99.90
37310;DHT22;23195;47.744;7.358;2024-02-16T04:50:06;10.90;99.90
37310;DHT22;23195;47.744;7.358;2024-02-16T04:52:36;11.00;99.90
37310;DHT22;23195;47.744;7.358;2024-02-16T04:55:13;11.00;99.90
37310;DHT22;23195;47.744;7.358;2024-02-16T04:57:43;11.00;99.90
37310;DHT22;23195;47.744;7.358;2024-02-16T05:00:50;11.00;99.90
37310;DHT22;23195;47.744;7.358;2024-02-16T05:03:42;11.00;99.90
37310;DHT22;23195;47.744;7.358;2024-02-16T05:06:23;11.50;99.90
37310;DHT22;23195;47.744;7.358;2024-02-16T05:08:56;10.90;99.90
37310;DHT22;23195;47.744;7.358;2024-02-16T05:11:43;11.30;99.90
37310;DHT22;23195;47.744;7.358;2024-02-16T05:14:14;11.00;99.90
37310;DHT22;23195;47.744;7.358;2024-02-16T05:16:57;11.10;99.90
37310;DHT22;23195;47.744;7.358;2024-02-16T05:19:28;11.10;99.90
37310;DHT22;23195;47.744;7.358;2024-02-16T05:22:11;11.00;99.90
37310;DHT22;23195;47.744;7.358;2024-02-16T05:24:57;11.10;99.90
37310;DHT22;23195;47.744;7.358;2024-02-16T05:27:25;11.10;99.90
37310;DHT22;23195;47.744;7.358;2024-02-16T05:30:08;10.90;99.90
37310;DHT22;23195;47.744;7.358;2024-02-16T05:32:42;11.10;99.90
37310;DHT22;23195;47.744;7.358;2024-02-16T05:35:22;11.00;99.90
37310;DHT22;23195;47.744;7.358;2024-02-16T05:37:59;11.10;99.90
37310;DHT22;23195;47.744;7.358;2024-02-16T05:40:35;11.00;99.90
37310;DHT22;23195;47.744;7.358;2024-02-16T05:43:19;11.10;99.90
37310;DHT22;23195;47.744;7.358;2024-02-16T05:45:49;11.10;99.90
37310;DHT22;23195;47.744;7.358;2024-02-16T05:48:20;11.10;99.90
37310;DHT22;23195;47.744;7.358;2024-02-16T05:51:03;11.20;99.90
37310;DHT22;23195;47.744;7.358;2024-02-16T05:53:43;11.20;99.90
37310;DHT22;23195;47.744;7.358;2024-02-16T05:56:25;11.20;99.90
37310;DHT22;23195;47.744;7.358;2024-02-16T05:59:09;11.10;99.90
37310;DHT22;23195;47.744;7.358;2024-02-16T06:01:45;11.20;99.90
37310;DHT22;23195;47.744;7.358;2024-02-16T06:04:31;11.20;99.90
37310;DHT22;23195;47.744;7.358;2024-02-16T06:07:14;11.20;99.90
37310;DHT22;23195;47.744;7.358;2024-02-16T06:09:50;11.20;99.90
37310;DHT22;23195;47.744;7.358;2024-02-16T06:12:32;11.30;99.90
37310;DHT22;23195;47.744;7.358;2024-02-16T06:15:05;11.40;99.90
37310;DHT22;23195;47.744;7.358;2024-02-16T06:17:35;11.30;99.90
37310;DHT22;23195;47.744;7.358;2024-02-16T06:20:05;11.30;99.90
37310;DHT22;23195;47.744;7.358;2024-02-16T06:22:41;11.40;99.90
37310;DHT22;23195;47.744;7.358;2024-02-16T06:25:08;11.40;99.90
37310;DHT22;23195;47.744;7.358;2024-02-16T06:27:43;11.40;99.90
37310;DHT22;23195;47.744;7.358;2024-02-16T06:30:24;11.40;99.90
37310;DHT22;23195;47.744;7.358;2024-02-16T06:32:53;11.50;99.90
37310;DHT22;23195;47.744;7.358;2024-02-16T06:35:29;11.50;99.90
37310;DHT22;23195;47.744;7.358;2024-02-16T06:37:55;11.60;99.90
37310;DHT22;23195;47.744;7.358;2024-02-16T06:40:34;11.60;99.90
37310;DHT22;23195;47.744;7.358;2024-02-16T06:43:00;11.60;99.90
37310;DHT22;23195;47.744;7.358;2024-02-16T06:45:33;11.60;99.90
37310;DHT22;23195;47.744;7.358;2024-02-16T06:48:05;11.60;99.90
37310;DHT22;23195;47.744;7.358;2024-02-16T06:50:35;11.60;99.90
37310;DHT22;23195;47.744;7.358;2024-02-16T06:53:04;11.50;99.90
37310;DHT22;23195;47.744;7.358;2024-02-16T06:55:29;11.50;99.90
37310;DHT22;23195;47.744;7.358;2024-02-16T06:57:55;11.50;99.90
37310;DHT22;23195;47.744;7.358;2024-02-16T07:00:27;11.50;99.90
37310;DHT22;23195;47.744;7.358;2024-02-16T07:02:53;11.40;99.90
37310;DHT22;23195;47.744;7.358;2024-02-16T07:05:19;11.70;99.90
37310;DHT22;23195;47.744;7.358;2024-02-16T07:07:45;11.50;99.90
37310;DHT22;23195;47.744;7.358;2024-02-16T07:10:10;11.50;99.90
37310;DHT22;23195;47.744;7.358;2024-02-16T07:12:40;11.40;99.90
37310;DHT22;23195;47.744;7.358;2024-02-16T07:15:09;11.90;99.90
37310;DHT22;23195;47.744;7.358;2024-02-16T07:17:40;11.40;99.90
37310;DHT22;23195;47.744;7.358;2024-02-16T07:20:09;11.30;99.90
37310;DHT22;23195;47.744;7.358;2024-02-16T07:22:40;11.40;99.90
37310;DHT22;23195;47.744;7.358;2024-02-16T07:25:23;11.40;99.90
37310;DHT22;23195;47.744;7.358;2024-02-16T07:27:54;11.40;99.90
37310;DHT22;23195;47.744;7.358;2024-02-16T07:30:20;11.40;99.90
37310;DHT22;23195;47.744;7.358;2024-02-16T07:32:52;11.40;99.90
37310;DHT22;23195;47.744;7.358;2024-02-16T07:35:24;11.40;99.90
37310;DHT22;23195;47.744;7.358;2024-02-16T07:37:51;10.90;99.90
37310;DHT22;23195;47.744;7.358;2024-02-16T07:40:20;11.50;99.90
37310;DHT22;23195;47.744;7.358;2024-02-16T07:42:46;11.60;99.90
37310;DHT22;23195;47.744;7.358;2024-02-16T07:45:17;11.80;99.90
37310;DHT22;23195;47.744;7.358;2024-02-16T07:47:46;11.80;99.90
37310;DHT22;23195;47.744;7.358;2024-02-16T07:50:12;11.90;99.90
37310;DHT22;23195;47.744;7.358;2024-02-16T07:52:41;12.00;99.90
37310;DHT22;23195;47.744;7.358;2024-02-16T07:55:08;12.20;99.90
37310;DHT22;23195;47.744;7.358;2024-02-16T07:57:36;12.40;99.90
37310;DHT22;23195;47.744;7.358;2024-02-16T08:00:04;12.50;99.90
37310;DHT22;23195;47.744;7.358;2024-02-16T08:02:32;12.80;99.90
37310;DHT22;23195;47.744;7.358;2024-02-16T08:05:22;12.90;99.90
37310;DHT22;23195;47.744;7.358;2024-02-16T08:07:49;13.30;99.90
37310;DHT22;23195;47.744;7.358;2024-02-16T08:10:19;13.50;99.90
37310;DHT22;23195;47.744;7.358;2024-02-16T08:12:53;13.80;99.90
37310;DHT22;23195;47.744;7.358;2024-02-16T08:15:21;14.00;99.90
37310;DHT22;23195;47.744;7.358;2024-02-16T08:18:03;14.00;99.90
37310;DHT22;23195;47.744;7.358;2024-02-16T08:20:50;14.00;99.90
37310;DHT22;23195;47.744;7.358;2024-02-16T08:23:25;14.00;99.90
37310;DHT22;23195;47.744;7.358;2024-02-16T08:25:55;14.00;99.90
37310;DHT22;23195;47.744;7.358;2024-02-16T08:28:24;14.00;99.90
37310;DHT22;23195;47.744;7.358;2024-02-16T08:30:53;14.00;99.90
37310;DHT22;23195;47.744;7.358;2024-02-16T08:33:21;13.80;99.90
37310;DHT22;23195;47.744;7.358;2024-02-16T08:35:50;15.10;99.90
37310;DHT22;23195;47.744;7.358;2024-02-16T08:38:27;14.00;99.90
37310;DHT22;23195;47.744;7.358;2024-02-16T08:40:55;14.30;99.90
37310;DHT22;23195;47.744;7.358;2024-02-16T08:43:36;14.30;99.90
37310;DHT22;23195;47.744;7.358;2024-02-16T08:46:02;14.30;99.90
37310;DHT22;23195;47.744;7.358;2024-02-16T08:48:30;14.40;99.90
37310;DHT22;23195;47.744;7.358;2024-02-16T08:50:56;14.40;99.90
37310;DHT22;23195;47.744;7.358;2024-02-16T08:53:25;14.40;99.90
37310;DHT22;23195;47.744;7.358;2024-02-16T08:55:55;14.40;99.90
37310;DHT22;23195;47.744;7.358;2024-02-16T08:58:22;14.30;99.90
37310;DHT22;23195;47.744;7.358;2024-02-16T09:00:51;14.30;99.90
37310;DHT22;23195;47.744;7.358;2024-02-16T09:03:19;14.40;99.90
37310;DHT22;23195;47.744;7.358;2024-02-16T09:05:45;14.40;99.90
37310;DHT22;23195;47.744;7.358;2024-02-16T09:08:14;14.40;99.90
37310;DHT22;23195;47.744;7.358;2024-02-16T09:10:40;14.40;99.90
37310;DHT22;23195;47.744;7.358;2024-02-16T09:13:11;14.40;99.90
37310;DHT22;23195;47.744;7.358;2024-02-16T09:15:37;14.40;99.90
37310;DHT22;23195;47.744;7.358;2024-02-16T09:18:12;14.40;99.90
37310;DHT22;23195;47.744;7.358;2024-02-16T09:20:38;14.30;99.90
37310;DHT22;23195;47.744;7.358;2024-02-16T09:23:04;14.40;99.90
37310;DHT22;23195;47.744;7.358;2024-02-16T09:25:29;14.40;99.90
37310;DHT22;23195;47.744;7.358;2024-02-16T09:27:58;14.30;99.90
37310;DHT22;23195;47.744;7.358;2024-02-16T09:30:27;14.10;99.90
37310;DHT22;23195;47.744;7.358;2024-02-16T09:32:53;14.40;99.90
37310;DHT22;23195;47.744;7.358;2024-02-16T09:35:37;13.60;99.90
37310;DHT22;23195;47.744;7.358;2024-02-16T09:38:06;14.40;99.90
37310;DHT22;23195;47.744;7.358;2024-02-16T09:40:32;14.50;99.90
37310;DHT22;23195;47.744;7.358;2024-02-16T09:43:01;14.20;99.90
37310;DHT22;23195;47.744;7.358;2024-02-16T09:45:28;14.50;99.90
37310;DHT22;23195;47.744;7.358;2024-02-16T09:47:54;14.60;99.90
37310;DHT22;23195;47.744;7.358;2024-02-16T09:50:21;14.60;99.90
37310;DHT22;23195;47.744;7.358;2024-02-16T09:52:48;14.60;99.90
37310;DHT22;23195;47.744;7.358;2024-02-16T09:55:23;14.60;99.90
37310;DHT22;23195;47.744;7.358;2024-02-16T09:58:05;14.50;99.90
37310;DHT22;23195;47.744;7.358;2024-02-16T10:00:36;14.50;99.90
37310;DHT22;23195;47.744;7.358;2024-02-16T10:03:20;14.50;99.90
37310;DHT22;23195;47.744;7.358;2024-02-16T10:05:50;14.50;99.90
37310;DHT22;23195;47.744;7.358;2024-02-16T10:08:21;14.60;99.90
37310;DHT22;23195;47.744;7.358;2024-02-16T10:11:03;14.60;99.90
37310;DHT22;23195;47.744;7.358;2024-02-16T10:13:31;14.60;99.90
37310;DHT22;23195;47.744;7.358;2024-02-16T10:16:05;14.60;99.90
37310;DHT22;23195;47.744;7.358;2024-02-16T10:18:44;14.50;99.90
37310;DHT22;23195;47.744;7.358;2024-02-16T10:21:28;14.50;99.90
37310;DHT22;23195;47.744;7.358;2024-02-16T10:24:01;14.60;99.90
37310;DHT22;23195;47.744;7.358;2024-02-16T10:26:34;14.40;99.90
37310;DHT22;23195;47.744;7.358;2024-02-16T10:29:05;14.60;99.90
37310;DHT22;23195;47.744;7.358;2024-02-16T10:31:33;14.50;99.90
37310;DHT22;23195;47.744;7.358;2024-02-16T10:34:03;14.60;99.90
37310;DHT22;23195;47.744;7.358;2024-02-16T10:36:36;14.60;99.90
37310;DHT22;23195;47.744;7.358;2024-02-16T10:39:10;14.60;99.90
37310;DHT22;23195;47.744;7.358;2024-02-16T10:41:44;14.70;99.90
37310;DHT22;23195;47.744;7.358;2024-02-16T10:44:15;14.80;99.90
37310;DHT22;23195;47.744;7.358;2024-02-16T10:46:45;14.90;99.90
37310;DHT22;23195;47.744;7.358;2024-02-16T10:49:11;14.50;99.90
37310;DHT22;23195;47.744;7.358;2024-02-16T10:51:43;14.80;99.90
37310;DHT22;23195;47.744;7.358;2024-02-16T10:54:20;14.80;99.90
37310;DHT22;23195;47.744;7.358;2024-02-16T10:56:47;14.90;99.90
37310;DHT22;23195;47.744;7.358;2024-02-16T10:59:20;14.90;99.90
37310;DHT22;23195;47.744;7.358;2024-02-16T11:02:02;14.90;99.90
37310;DHT22;23195;47.744;7.358;2024-02-16T11:04:37;14.90;99.90
37310;DHT22;23195;47.744;7.358;2024-02-16T11:07:17;14.80;99.90
37310;DHT22;23195;47.744;7.358;2024-02-16T11:09:50;14.70;99.90
37310;DHT22;23195;47.744;7.358;2024-02-16T11:12:21;14.50;99.90
37310;DHT22;23195;47.744;7.358;2024-02-16T11:15:08;14.40;99.90
37310;DHT22;23195;47.744;7.358;2024-02-16T11:20:44;14.20;99.90
37310;DHT22;23195;47.744;7.358;2024-02-16T11:23:13;14.30;99.90
37310;DHT22;23195;47.744;7.358;2024-02-16T11:26:01;14.40;99.90
37310;DHT22;23195;47.744;7.358;2024-02-16T11:28:44;14.50;99.90
37310;DHT22;23195;47.744;7.358;2024-02-16T11:31:25;14.40;99.90
37310;DHT22;23195;47.744;7.358;2024-02-16T11:34:15;14.50;99.90
37310;DHT22;23195;47.744;7.358;2024-02-16T11:36:50;14.50;99.90
37310;DHT22;23195;47.744;7.358;2024-02-16T11:39:39;14.20;99.90
37310;DHT22;23195;47.744;7.358;2024-02-16T11:42:26;14.50;99.90
37310;DHT22;23195;47.744;7.358;2024-02-16T11:45:00;14.80;99.90
37310;DHT22;23195;47.744;7.358;2024-02-16T11:47:31;15.00;99.90
37310;DHT22;23195;47.744;7.358;2024-02-16T11:50:08;14.10;99.90
37310;DHT22;23195;47.744;7.358;2024-02-16T11:52:49;14.90;99.90
37310;DHT22;23195;47.744;7.358;2024-02-16T11:55:31;15.10;99.90
37310;DHT22;23195;47.744;7.358;2024-02-16T11:58:12;15.20;99.90
37310;DHT22;23195;47.744;7.358;2024-02-16T12:00:43;15.10;99.90
37310;DHT22;23195;47.744;7.358;2024-02-16T12:03:11;15.00;99.90
37310;DHT22;23195;47.744;7.358;2024-02-16T12:05:40;15.40;99.90
37310;DHT22;23195;47.744;7.358;2024-02-16T12:08:24;15.20;99.90
37310;DHT22;23195;47.744;7.358;2024-02-16T12:11:14;14.90;99.90
37310;DHT22;23195;47.744;7.358;2024-02-16T12:13:44;15.30;99.90
37310;DHT22;23195;47.744;7.358;2024-02-16T12:16:40;14.60;99.90
37310;DHT22;23195;47.744;7.358;2024-02-16T12:19:11;15.50;99.90
37310;DHT22;23195;47.744;7.358;2024-02-16T12:22:31;15.50;99.90
37310;DHT22;23195;47.744;7.358;2024-02-16T12:27:55;15.20;99.90
37310;DHT22;23195;47.744;7.358;2024-02-16T12:30:29;15.20;99.90
37310;DHT22;23195;47.744;7.358;2024-02-16T12:33:10;15.50;99.90
37310;DHT22;23195;47.744;7.358;2024-02-16T12:35:41;14.50;99.90
37310;DHT22;23195;47.744;7.358;2024-02-16T12:38:23;15.20;99.90
37310;DHT22;23195;47.744;7.358;2024-02-16T12:40:57;15.20;99.90
37310;DHT22;23195;47.744;7.358;2024-02-16T12:43:44;15.20;99.90
37310;DHT22;23195;47.744;7.358;2024-02-16T12:49:55;14.10;99.90
37310;DHT22;23195;47.744;7.358;2024-02-16T12:52:24;14.80;99.90
37310;DHT22;23195;47.744;7.358;2024-02-16T12:54:55;15.30;99.90
37310;DHT22;23195;47.744;7.358;2024-02-16T12:57:48;15.30;99.90
37310;DHT22;23195;47.744;7.358;2024-02-16T13:00:27;15.20;99.90
37310;DHT22;23195;47.744;7.358;2024-02-16T13:05:58;15.20;99.90
37310;DHT22;23195;47.744;7.358;2024-02-16T13:08:43;15.30;99.90
37310;DHT22;23195;47.744;7.358;2024-02-16T13:11:11;15.30;99.90
37310;DHT22;23195;47.744;7.358;2024-02-16T13:14:17;15.30;99.90
37310;DHT22;23195;47.744;7.358;2024-02-16T13:16:49;15.40;99.90
37310;DHT22;23195;47.744;7.358;2024-02-16T13:19:15;15.50;99.90
37310;DHT22;23195;47.744;7.358;2024-02-16T13:21:48;15.50;99.90
37310;DHT22;23195;47.744;7.358;2024-02-16T13:24:18;15.60;99.90
37310;DHT22;23195;47.744;7.358;2024-02-16T13:26:52;15.60;99.90
37310;DHT22;23195;47.744;7.358;2024-02-16T13:29:29;15.60;99.90
37310;DHT22;23195;47.744;7.358;2024-02-16T13:32:03;15.50;99.90
37310;DHT22;23195;47.744;7.358;2024-02-16T13:34:41;16.10;99.90
37310;DHT22;23195;47.744;7.358;2024-02-16T13:37:14;15.40;99.90
37310;DHT22;23195;47.744;7.358;2024-02-16T13:39:58;15.30;99.90
37310;DHT22;23195;47.744;7.358;2024-02-16T13:42:32;15.50;99.90
37310;DHT22;23195;47.744;7.358;2024-02-16T13:45:14;15.40;99.90
37310;DHT22;23195;47.744;7.358;2024-02-16T13:47:43;15.40;99.90
37310;DHT22;23195;47.744;7.358;2024-02-16T13:50:16;15.40;99.90
37310;DHT22;23195;47.744;7.358;2024-02-16T13:52:42;15.10;99.90
37310;DHT22;23195;47.744;7.358;2024-02-16T13:55:08;15.20;99.90
37310;DHT22;23195;47.744;7.358;2024-02-16T13:57:41;15.20;99.90
37310;DHT22;23195;47.744;7.358;2024-02-16T14:00:13;15.20;99.90
37310;DHT22;23195;47.744;7.358;2024-02-16T14:02:50;16.10;99.90
37310;DHT22;23195;47.744;7.358;2024-02-16T14:05:18;15.20;99.90
37310;DHT22;23195;47.744;7.358;2024-02-16T14:07:54;15.20;99.90
37310;DHT22;23195;47.744;7.358;2024-02-16T14:10:45;15.30;99.90
37310;DHT22;23195;47.744;7.358;2024-02-16T14:13:31;15.30;99.90
37310;DHT22;23195;47.744;7.358;2024-02-16T14:16:08;15.20;99.90
37310;DHT22;23195;47.744;7.358;2024-02-16T14:18:42;15.60;99.90
37310;DHT22;23195;47.744;7.358;2024-02-16T14:21:35;15.30;99.90
37310;DHT22;23195;47.744;7.358;2024-02-16T14:24:04;15.30;99.90
37310;DHT22;23195;47.744;7.358;2024-02-16T14:26:32;15.30;99.90
37310;DHT22;23195;47.744;7.358;2024-02-16T14:29:09;15.90;99.90
37310;DHT22;23195;47.744;7.358;2024-02-16T14:31:57;15.30;99.90
37310;DHT22;23195;47.744;7.358;2024-02-16T14:34:39;15.30;99.90
37310;DHT22;23195;47.744;7.358;2024-02-16T14:37:15;15.20;99.90
37310;DHT22;23195;47.744;7.358;2024-02-16T14:39:48;15.10;99.90
37310;DHT22;23195;47.744;7.358;2024-02-16T14:42:32;15.00;99.90
37310;DHT22;23195;47.744;7.358;2024-02-16T14:45:14;14.90;99.90
37310;DHT22;23195;47.744;7.358;2024-02-16T14:47:49;14.90;99.90
37310;DHT22;23195;47.744;7.358;2024-02-16T14:50:33;14.80;99.90
37310;DHT22;23195;47.744;7.358;2024-02-16T14:53:03;14.80;99.90
37310;DHT22;23195;47.744;7.358;2024-02-16T14:55:40;14.70;99.90
37310;DHT22;23195;47.744;7.358;2024-02-16T14:58:20;14.60;99.90
37310;DHT22;23195;47.744;7.358;2024-02-16T15:00:53;14.80;99.90
37310;DHT22;23195;47.744;7.358;2024-02-16T15:03:35;14.60;99.90
37310;DHT22;23195;47.744;7.358;2024-02-16T15:06:26;14.60;99.90
37310;DHT22;23195;47.744;7.358;2024-02-16T15:08:57;14.50;99.90
37310;DHT22;23195;47.744;7.358;2024-02-16T15:11:45;14.50;99.90
37310;DHT22;23195;47.744;7.358;2024-02-16T15:14:16;14.50;99.90
37310;DHT22;23195;47.744;7.358;2024-02-16T15:16:48;14.60;99.90
37310;DHT22;23195;47.744;7.358;2024-02-16T15:19:32;14.50;99.90
37310;DHT22;23195;47.744;7.358;2024-02-16T15:21:58;14.50;99.90
37310;DHT22;23195;47.744;7.358;2024-02-16T15:24:34;14.40;99.90
37310;DHT22;23195;47.744;7.358;2024-02-16T15:27:09;14.40;99.90
37310;DHT22;23195;47.744;7.358;2024-02-16T15:30:04;15.10;99.90
37310;DHT22;23195;47.744;7.358;2024-02-16T15:32:51;14.30;99.90
37310;DHT22;23195;47.744;7.358;2024-02-16T15:35:29;14.30;99.90
37310;DHT22;23195;47.744;7.358;2024-02-16T15:38:03;14.30;99.90
37310;DHT22;23195;47.744;7.358;2024-02-16T15:41:01;13.20;99.90
37310;DHT22;23195;47.744;7.358;2024-02-16T15:43:36;14.50;99.90
37310;DHT22;23195;47.744;7.358;2024-02-16T15:46:11;14.30;99.90
37310;DHT22;23195;47.744;7.358;2024-02-16T15:48:47;14.30;99.90
37310;DHT22;23195;47.744;7.358;2024-02-16T15:51:26;13.00;99.90
37310;DHT22;23195;47.744;7.358;2024-02-16T15:53:54;14.20;99.90
37310;DHT22;23195;47.744;7.358;2024-02-16T15:56:30;14.20;99.90
37310;DHT22;23195;47.744;7.358;2024-02-16T15:59:15;14.10;99.90
37310;DHT22;23195;47.744;7.358;2024-02-16T16:01:49;14.10;99.90
37310;DHT22;23195;47.744;7.358;2024-02-16T16:04:27;14.10;99.90
37310;DHT22;23195;47.744;7.358;2024-02-16T16:07:16;14.00;99.90
37310;DHT22;23195;47.744;7.358;2024-02-16T16:10:15;14.10;99.90
37310;DHT22;23195;47.744;7.358;2024-02-16T16:12:56;12.40;99.90
37310;DHT22;23195;47.744;7.358;2024-02-16T16:15:32;13.90;99.90
37310;DHT22;23195;47.744;7.358;2024-02-16T16:18:20;13.90;99.90
37310;DHT22;23195;47.744;7.358;2024-02-16T16:20:49;13.90;99.90
37310;DHT22;23195;47.744;7.358;2024-02-16T16:23:17;13.80;99.90
37310;DHT22;23195;47.744;7.358;2024-02-16T16:26:04;13.80;99.90
37310;DHT22;23195;47.744;7.358;2024-02-16T16:28:50;13.70;99.90
37310;DHT22;23195;47.744;7.358;2024-02-16T16:31:21;13.60;99.90
37310;DHT22;23195;47.744;7.358;2024-02-16T16:34:24;13.50;99.90
37310;DHT22;23195;47.744;7.358;2024-02-16T16:37:01;13.50;99.90
37310;DHT22;23195;47.744;7.358;2024-02-16T16:39:35;13.50;99.90
37310;DHT22;23195;47.744;7.358;2024-02-16T16:42:02;13.40;99.90
37310;DHT22;23195;47.744;7.358;2024-02-16T16:44:39;13.20;99.90
37310;DHT22;23195;47.744;7.358;2024-02-16T16:47:21;13.40;99.90
37310;DHT22;23195;47.744;7.358;2024-02-16T16:49:51;13.30;99.90
37310;DHT22;23195;47.744;7.358;2024-02-16T16:52:27;13.20;99.90